sensor_id;sensor_type;location;lat;lon;timestamp;P1;durP1;ratioP1;P2;durP2;ratioP2
70270;SDS011;57680;54.292;18.598;2023-03-13T00:01:57;41.67;;;14.73;;
70270;SDS011;57680;54.292;18.598;2023-03-13T00:04:22;43.58;;;14.95;;
70270;SDS011;57680;54.292;18.598;2023-03-13T00:06:48;44.53;;;15.63;;
70270;SDS011;57680;54.292;18.598;2023-03-13T00:09:14;39.70;;;14.65;;
70270;SDS011;57680;54.292;18.598;2023-03-13T00:11:40;41.15;;;14.07;;
70270;SDS011;57680;54.292;18.598;2023-03-13T00:14:06;34.80;;;12.93;;
70270;SDS011;57680;54.292;18.598;2023-03-13T00:16:32;39.80;;;13.37;;
70270;SDS011;57680;54.292;18.598;2023-03-13T00:18:58;37.38;;;12.57;;
70270;SDS011;57680;54.292;18.598;2023-03-13T00:21:24;36.63;;;12.63;;
70270;SDS011;57680;54.292;18.598;2023-03-13T00:23:50;36.75;;;12.50;;
70270;SDS011;57680;54.292;18.598;2023-03-13T00:26:17;36.03;;;11.97;;
70270;SDS011;57680;54.292;18.598;2023-03-13T00:28:44;34.70;;;11.32;;
70270;SDS011;57680;54.292;18.598;2023-03-13T00:33:39;29.27;;;10.57;;
70270;SDS011;57680;54.292;18.598;2023-03-13T00:36:10;29.42;;;9.98;;
70270;SDS011;57680;54.292;18.598;2023-03-13T00:38:37;27.33;;;9.75;;
70270;SDS011;57680;54.292;18.598;2023-03-13T00:41:07;29.05;;;10.38;;
70270;SDS011;57680;54.292;18.598;2023-03-13T00:43:38;25.75;;;9.65;;
70270;SDS011;57680;54.292;18.598;2023-03-13T00:46:05;29.48;;;9.98;;
70270;SDS011;57680;54.292;18.598;2023-03-13T00:48:30;31.07;;;10.37;;
70270;SDS011;57680;54.292;18.598;2023-03-13T00:50:56;26.02;;;10.13;;
70270;SDS011;57680;54.292;18.598;2023-03-13T00:53:22;28.67;;;10.07;;
70270;SDS011;57680;54.292;18.598;2023-03-13T00:55:54;32.40;;;10.82;;
70270;SDS011;57680;54.292;18.598;2023-03-13T00:58:26;28.45;;;9.80;;
70270;SDS011;57680;54.292;18.598;2023-03-13T01:00:53;30.50;;;9.52;;
70270;SDS011;57680;54.292;18.598;2023-03-13T01:03:20;26.98;;;10.15;;
70270;SDS011;57680;54.292;18.598;2023-03-13T01:06:00;27.63;;;9.98;;
70270;SDS011;57680;54.292;18.598;2023-03-13T01:08:26;27.70;;;9.73;;
70270;SDS011;57680;54.292;18.598;2023-03-13T01:11:06;26.02;;;9.75;;
70270;SDS011;57680;54.292;18.598;2023-03-13T01:13:34;30.50;;;10.90;;
70270;SDS011;57680;54.292;18.598;2023-03-13T01:16:07;27.55;;;10.45;;
70270;SDS011;57680;54.292;18.598;2023-03-13T01:18:34;24.25;;;9.20;;
70270;SDS011;57680;54.292;18.598;2023-03-13T01:21:01;24.10;;;9.35;;
70270;SDS011;57680;54.292;18.598;2023-03-13T01:23:28;23.33;;;8.80;;
70270;SDS011;57680;54.292;18.598;2023-03-13T01:25:54;23.00;;;8.90;;
70270;SDS011;57680;54.292;18.598;2023-03-13T01:28:20;25.88;;;8.88;;
70270;SDS011;57680;54.292;18.598;2023-03-13T01:30:46;25.10;;;8.68;;
70270;SDS011;57680;54.292;18.598;2023-03-13T01:33:11;26.47;;;9.20;;
70270;SDS011;57680;54.292;18.598;2023-03-13T01:35:37;29.23;;;10.07;;
70270;SDS011;57680;54.292;18.598;2023-03-13T01:38:02;28.33;;;9.37;;
70270;SDS011;57680;54.292;18.598;2023-03-13T01:40:28;24.73;;;8.82;;
70270;SDS011;57680;54.292;18.598;2023-03-13T01:42:54;25.00;;;9.00;;
70270;SDS011;57680;54.292;18.598;2023-03-13T01:48:23;24.80;;;8.90;;
70270;SDS011;57680;54.292;18.598;2023-03-13T01:50:52;24.35;;;9.95;;
70270;SDS011;57680;54.292;18.598;2023-03-13T01:53:21;29.85;;;9.13;;
70270;SDS011;57680;54.292;18.598;2023-03-13T01:55:47;27.67;;;10.05;;
70270;SDS011;57680;54.292;18.598;2023-03-13T01:58:13;27.73;;;10.17;;
70270;SDS011;57680;54.292;18.598;2023-03-13T02:00:38;24.93;;;9.27;;
70270;SDS011;57680;54.292;18.598;2023-03-13T02:03:07;25.05;;;10.02;;
70270;SDS011;57680;54.292;18.598;2023-03-13T02:05:35;29.27;;;9.32;;
70270;SDS011;57680;54.292;18.598;2023-03-13T02:08:03;27.73;;;9.50;;
70270;SDS011;57680;54.292;18.598;2023-03-13T02:10:40;28.73;;;9.98;;
70270;SDS011;57680;54.292;18.598;2023-03-13T02:13:11;28.10;;;10.43;;
70270;SDS011;57680;54.292;18.598;2023-03-13T02:15:39;27.98;;;9.20;;
70270;SDS011;57680;54.292;18.598;2023-03-13T02:18:05;25.17;;;10.07;;
70270;SDS011;57680;54.292;18.598;2023-03-13T02:20:31;25.23;;;9.27;;
70270;SDS011;57680;54.292;18.598;2023-03-13T02:28:04;26.57;;;9.33;;
70270;SDS011;57680;54.292;18.598;2023-03-13T02:30:33;24.58;;;9.27;;
70270;SDS011;57680;54.292;18.598;2023-03-13T02:32:59;27.30;;;9.73;;
70270;SDS011;57680;54.292;18.598;2023-03-13T02:35:26;26.13;;;9.30;;
70270;SDS011;57680;54.292;18.598;2023-03-13T02:37:55;24.83;;;8.75;;
70270;SDS011;57680;54.292;18.598;2023-03-13T02:40:24;25.95;;;9.25;;
70270;SDS011;57680;54.292;18.598;2023-03-13T02:42:55;22.75;;;8.65;;
70270;SDS011;57680;54.292;18.598;2023-03-13T02:45:24;27.80;;;9.50;;
70270;SDS011;57680;54.292;18.598;2023-03-13T02:47:51;25.45;;;9.07;;
70270;SDS011;57680;54.292;18.598;2023-03-13T02:50:16;23.70;;;9.18;;
70270;SDS011;57680;54.292;18.598;2023-03-13T02:52:48;25.67;;;8.98;;
70270;SDS011;57680;54.292;18.598;2023-03-13T02:55:22;24.73;;;8.80;;
70270;SDS011;57680;54.292;18.598;2023-03-13T02:57:50;24.10;;;9.23;;
70270;SDS011;57680;54.292;18.598;2023-03-13T03:00:16;25.45;;;8.93;;
70270;SDS011;57680;54.292;18.598;2023-03-13T03:02:42;26.42;;;9.45;;
70270;SDS011;57680;54.292;18.598;2023-03-13T03:05:08;28.50;;;9.40;;
70270;SDS011;57680;54.292;18.598;2023-03-13T03:07:35;23.30;;;9.40;;
70270;SDS011;57680;54.292;18.598;2023-03-13T03:10:00;25.53;;;9.63;;
70270;SDS011;57680;54.292;18.598;2023-03-13T03:12:26;26.30;;;8.68;;
70270;SDS011;57680;54.292;18.598;2023-03-13T03:14:51;25.03;;;9.60;;
70270;SDS011;57680;54.292;18.598;2023-03-13T03:17:17;24.27;;;8.57;;
70270;SDS011;57680;54.292;18.598;2023-03-13T03:19:43;25.00;;;9.38;;
70270;SDS011;57680;54.292;18.598;2023-03-13T03:22:08;23.63;;;8.77;;
70270;SDS011;57680;54.292;18.598;2023-03-13T03:24:34;25.83;;;8.52;;
70270;SDS011;57680;54.292;18.598;2023-03-13T03:27:00;24.13;;;8.50;;
70270;SDS011;57680;54.292;18.598;2023-03-13T03:29:25;25.60;;;8.52;;
70270;SDS011;57680;54.292;18.598;2023-03-13T03:31:51;22.27;;;8.20;;
70270;SDS011;57680;54.292;18.598;2023-03-13T03:34:16;21.70;;;8.27;;
70270;SDS011;57680;54.292;18.598;2023-03-13T03:36:41;26.53;;;8.00;;
70270;SDS011;57680;54.292;18.598;2023-03-13T03:39:07;24.63;;;8.98;;
70270;SDS011;57680;54.292;18.598;2023-03-13T03:41:33;21.27;;;7.53;;
70270;SDS011;57680;54.292;18.598;2023-03-13T03:43:58;22.63;;;8.30;;
70270;SDS011;57680;54.292;18.598;2023-03-13T03:46:24;24.17;;;7.95;;
70270;SDS011;57680;54.292;18.598;2023-03-13T03:48:49;22.13;;;7.93;;
70270;SDS011;57680;54.292;18.598;2023-03-13T03:51:15;20.97;;;7.40;;
70270;SDS011;57680;54.292;18.598;2023-03-13T03:53:40;23.65;;;8.18;;
70270;SDS011;57680;54.292;18.598;2023-03-13T03:56:05;20.07;;;7.60;;
70270;SDS011;57680;54.292;18.598;2023-03-13T03:58:31;21.53;;;8.77;;
70270;SDS011;57680;54.292;18.598;2023-03-13T04:00:57;21.23;;;7.80;;
70270;SDS011;57680;54.292;18.598;2023-03-13T04:03:23;18.40;;;7.40;;
70270;SDS011;57680;54.292;18.598;2023-03-13T04:05:49;21.65;;;8.88;;
70270;SDS011;57680;54.292;18.598;2023-03-13T04:08:15;20.90;;;8.17;;
70270;SDS011;57680;54.292;18.598;2023-03-13T04:10:40;18.63;;;7.60;;
70270;SDS011;57680;54.292;18.598;2023-03-13T04:13:06;20.60;;;7.57;;
70270;SDS011;57680;54.292;18.598;2023-03-13T04:15:31;21.10;;;7.60;;
70270;SDS011;57680;54.292;18.598;2023-03-13T04:17:57;20.63;;;7.60;;
70270;SDS011;57680;54.292;18.598;2023-03-13T04:20:22;22.47;;;8.43;;
70270;SDS011;57680;54.292;18.598;2023-03-13T04:22:48;20.27;;;7.70;;
70270;SDS011;57680;54.292;18.598;2023-03-13T04:25:13;19.37;;;7.20;;
70270;SDS011;57680;54.292;18.598;2023-03-13T04:27:39;19.13;;;7.60;;
70270;SDS011;57680;54.292;18.598;2023-03-13T04:30:04;21.83;;;8.20;;
70270;SDS011;57680;54.292;18.598;2023-03-13T04:32:30;20.17;;;8.48;;
70270;SDS011;57680;54.292;18.598;2023-03-13T04:34:56;19.73;;;7.57;;
70270;SDS011;57680;54.292;18.598;2023-03-13T04:37:21;21.20;;;8.43;;
70270;SDS011;57680;54.292;18.598;2023-03-13T04:39:47;21.07;;;7.60;;
70270;SDS011;57680;54.292;18.598;2023-03-13T04:42:12;19.13;;;8.00;;
70270;SDS011;57680;54.292;18.598;2023-03-13T04:44:37;20.63;;;7.53;;
70270;SDS011;57680;54.292;18.598;2023-03-13T04:47:03;20.65;;;7.78;;
70270;SDS011;57680;54.292;18.598;2023-03-13T04:49:30;20.10;;;7.80;;
70270;SDS011;57680;54.292;18.598;2023-03-13T04:51:55;19.77;;;7.97;;
70270;SDS011;57680;54.292;18.598;2023-03-13T04:54:21;21.67;;;8.30;;
70270;SDS011;57680;54.292;18.598;2023-03-13T04:56:46;21.53;;;8.47;;
70270;SDS011;57680;54.292;18.598;2023-03-13T04:59:12;21.42;;;7.88;;
70270;SDS011;57680;54.292;18.598;2023-03-13T05:01:39;24.98;;;9.18;;
70270;SDS011;57680;54.292;18.598;2023-03-13T05:04:04;20.97;;;8.23;;
70270;SDS011;57680;54.292;18.598;2023-03-13T05:06:30;27.30;;;9.45;;
70270;SDS011;57680;54.292;18.598;2023-03-13T05:08:55;24.00;;;8.57;;
70270;SDS011;57680;54.292;18.598;2023-03-13T05:11:21;21.63;;;9.13;;
70270;SDS011;57680;54.292;18.598;2023-03-13T05:13:46;25.25;;;9.10;;
70270;SDS011;57680;54.292;18.598;2023-03-13T05:16:12;24.57;;;9.50;;
70270;SDS011;57680;54.292;18.598;2023-03-13T05:18:37;23.30;;;9.23;;
70270;SDS011;57680;54.292;18.598;2023-03-13T05:21:03;24.33;;;9.40;;
70270;SDS011;57680;54.292;18.598;2023-03-13T05:23:29;27.73;;;9.55;;
70270;SDS011;57680;54.292;18.598;2023-03-13T05:25:54;27.27;;;9.90;;
70270;SDS011;57680;54.292;18.598;2023-03-13T05:28:20;26.83;;;9.20;;
70270;SDS011;57680;54.292;18.598;2023-03-13T05:30:45;24.65;;;9.20;;
70270;SDS011;57680;54.292;18.598;2023-03-13T05:33:11;33.03;;;10.67;;
70270;SDS011;57680;54.292;18.598;2023-03-13T05:35:36;26.98;;;9.57;;
70270;SDS011;57680;54.292;18.598;2023-03-13T05:38:02;28.77;;;10.20;;
70270;SDS011;57680;54.292;18.598;2023-03-13T05:40:27;24.73;;;9.70;;
70270;SDS011;57680;54.292;18.598;2023-03-13T05:42:53;25.97;;;10.50;;
70270;SDS011;57680;54.292;18.598;2023-03-13T05:45:18;25.53;;;9.43;;
70270;SDS011;57680;54.292;18.598;2023-03-13T05:47:43;28.42;;;10.40;;
70270;SDS011;57680;54.292;18.598;2023-03-13T05:50:09;27.03;;;10.40;;
70270;SDS011;57680;54.292;18.598;2023-03-13T05:52:35;32.55;;;10.82;;
70270;SDS011;57680;54.292;18.598;2023-03-13T05:55:00;29.10;;;10.47;;
70270;SDS011;57680;54.292;18.598;2023-03-13T05:57:26;28.90;;;10.27;;
70270;SDS011;57680;54.292;18.598;2023-03-13T05:59:52;30.95;;;10.45;;
70270;SDS011;57680;54.292;18.598;2023-03-13T06:02:17;29.63;;;10.07;;
70270;SDS011;57680;54.292;18.598;2023-03-13T06:04:43;29.70;;;9.85;;
70270;SDS011;57680;54.292;18.598;2023-03-13T06:07:08;30.97;;;10.47;;
70270;SDS011;57680;54.292;18.598;2023-03-13T06:09:34;30.80;;;10.43;;
70270;SDS011;57680;54.292;18.598;2023-03-13T06:11:59;30.20;;;10.17;;
70270;SDS011;57680;54.292;18.598;2023-03-13T06:14:24;31.57;;;10.53;;
70270;SDS011;57680;54.292;18.598;2023-03-13T06:16:50;30.35;;;10.82;;
70270;SDS011;57680;54.292;18.598;2023-03-13T06:19:15;30.57;;;10.40;;
70270;SDS011;57680;54.292;18.598;2023-03-13T06:21:41;31.47;;;12.27;;
70270;SDS011;57680;54.292;18.598;2023-03-13T06:24:07;30.08;;;11.18;;
70270;SDS011;57680;54.292;18.598;2023-03-13T06:26:32;32.93;;;10.70;;
70270;SDS011;57680;54.292;18.598;2023-03-13T06:28:57;32.23;;;10.33;;
70270;SDS011;57680;54.292;18.598;2023-03-13T06:31:23;33.60;;;10.07;;
70270;SDS011;57680;54.292;18.598;2023-03-13T06:33:52;35.17;;;11.63;;
70270;SDS011;57680;54.292;18.598;2023-03-13T06:36:18;33.55;;;10.40;;
70270;SDS011;57680;54.292;18.598;2023-03-13T06:38:44;36.87;;;12.07;;
70270;SDS011;57680;54.292;18.598;2023-03-13T06:41:10;33.85;;;10.82;;
70270;SDS011;57680;54.292;18.598;2023-03-13T06:43:35;33.57;;;11.10;;
70270;SDS011;57680;54.292;18.598;2023-03-13T06:46:04;31.95;;;10.77;;
70270;SDS011;57680;54.292;18.598;2023-03-13T06:48:29;39.67;;;11.33;;
70270;SDS011;57680;54.292;18.598;2023-03-13T06:50:55;35.72;;;11.52;;
70270;SDS011;57680;54.292;18.598;2023-03-13T06:53:20;35.37;;;11.70;;
70270;SDS011;57680;54.292;18.598;2023-03-13T06:55:46;37.05;;;10.82;;
70270;SDS011;57680;54.292;18.598;2023-03-13T06:58:12;34.43;;;11.10;;
70270;SDS011;57680;54.292;18.598;2023-03-13T07:00:37;38.07;;;11.17;;
70270;SDS011;57680;54.292;18.598;2023-03-13T07:03:03;33.80;;;10.43;;
70270;SDS011;57680;54.292;18.598;2023-03-13T07:05:28;34.42;;;10.75;;
70270;SDS011;57680;54.292;18.598;2023-03-13T07:07:54;36.10;;;11.50;;
70270;SDS011;57680;54.292;18.598;2023-03-13T07:10:19;40.03;;;10.53;;
70270;SDS011;57680;54.292;18.598;2023-03-13T07:12:45;35.40;;;11.43;;
70270;SDS011;57680;54.292;18.598;2023-03-13T07:15:10;38.13;;;11.83;;
70270;SDS011;57680;54.292;18.598;2023-03-13T07:17:36;31.50;;;10.80;;
70270;SDS011;57680;54.292;18.598;2023-03-13T07:20:02;32.03;;;10.57;;
70270;SDS011;57680;54.292;18.598;2023-03-13T07:22:30;35.75;;;11.45;;
70270;SDS011;57680;54.292;18.598;2023-03-13T07:24:55;32.57;;;10.33;;
70270;SDS011;57680;54.292;18.598;2023-03-13T07:27:20;30.58;;;10.25;;
70270;SDS011;57680;54.292;18.598;2023-03-13T07:29:46;30.33;;;10.00;;
70270;SDS011;57680;54.292;18.598;2023-03-13T07:32:12;37.23;;;10.70;;
70270;SDS011;57680;54.292;18.598;2023-03-13T07:34:37;32.30;;;10.00;;
70270;SDS011;57680;54.292;18.598;2023-03-13T07:37:03;36.23;;;11.43;;
70270;SDS011;57680;54.292;18.598;2023-03-13T07:39:28;34.07;;;11.23;;
70270;SDS011;57680;54.292;18.598;2023-03-13T07:41:53;28.90;;;9.70;;
70270;SDS011;57680;54.292;18.598;2023-03-13T07:44:19;30.60;;;9.85;;
70270;SDS011;57680;54.292;18.598;2023-03-13T07:46:44;27.40;;;9.70;;
70270;SDS011;57680;54.292;18.598;2023-03-13T07:49:10;29.47;;;9.67;;
70270;SDS011;57680;54.292;18.598;2023-03-13T07:51:35;31.95;;;9.75;;
70270;SDS011;57680;54.292;18.598;2023-03-13T07:54:01;34.47;;;10.10;;
70270;SDS011;57680;54.292;18.598;2023-03-13T07:56:26;31.93;;;9.93;;
70270;SDS011;57680;54.292;18.598;2023-03-13T07:58:52;30.33;;;9.70;;
70270;SDS011;57680;54.292;18.598;2023-03-13T08:01:18;35.17;;;10.23;;
70270;SDS011;57680;54.292;18.598;2023-03-13T08:03:46;29.47;;;10.10;;
70270;SDS011;57680;54.292;18.598;2023-03-13T08:06:12;32.50;;;10.82;;
70270;SDS011;57680;54.292;18.598;2023-03-13T08:08:39;30.85;;;10.55;;
70270;SDS011;57680;54.292;18.598;2023-03-13T08:11:23;31.25;;;9.63;;
70270;SDS011;57680;54.292;18.598;2023-03-13T08:13:50;28.93;;;9.10;;
70270;SDS011;57680;54.292;18.598;2023-03-13T08:16:20;30.33;;;10.15;;
70270;SDS011;57680;54.292;18.598;2023-03-13T08:18:49;29.00;;;10.57;;
70270;SDS011;57680;54.292;18.598;2023-03-13T08:21:17;29.70;;;9.38;;
70270;SDS011;57680;54.292;18.598;2023-03-13T08:23:43;35.85;;;11.38;;
70270;SDS011;57680;54.292;18.598;2023-03-13T08:26:10;35.23;;;10.67;;
70270;SDS011;57680;54.292;18.598;2023-03-13T08:28:38;33.83;;;11.95;;
70270;SDS011;57680;54.292;18.598;2023-03-13T08:31:11;34.07;;;10.90;;
70270;SDS011;57680;54.292;18.598;2023-03-13T08:33:46;36.92;;;11.23;;
70270;SDS011;57680;54.292;18.598;2023-03-13T08:38:48;37.40;;;11.70;;
70270;SDS011;57680;54.292;18.598;2023-03-13T08:41:14;36.30;;;11.43;;
70270;SDS011;57680;54.292;18.598;2023-03-13T08:43:42;34.58;;;12.35;;
70270;SDS011;57680;54.292;18.598;2023-03-13T08:46:07;35.47;;;11.63;;
70270;SDS011;57680;54.292;18.598;2023-03-13T08:48:32;39.40;;;12.53;;
70270;SDS011;57680;54.292;18.598;2023-03-13T08:51:02;36.23;;;11.50;;
70270;SDS011;57680;54.292;18.598;2023-03-13T08:53:29;38.80;;;12.57;;
70270;SDS011;57680;54.292;18.598;2023-03-13T08:55:55;40.22;;;12.27;;
70270;SDS011;57680;54.292;18.598;2023-03-13T08:58:21;37.27;;;11.73;;
70270;SDS011;57680;54.292;18.598;2023-03-13T09:00:46;35.00;;;12.05;;
70270;SDS011;57680;54.292;18.598;2023-03-13T09:03:12;37.60;;;11.60;;
70270;SDS011;57680;54.292;18.598;2023-03-13T09:05:37;38.63;;;13.03;;
70270;SDS011;57680;54.292;18.598;2023-03-13T09:08:03;39.37;;;11.67;;
70270;SDS011;57680;54.292;18.598;2023-03-13T09:10:29;36.10;;;11.93;;
70270;SDS011;57680;54.292;18.598;2023-03-13T09:12:56;37.75;;;11.27;;
70270;SDS011;57680;54.292;18.598;2023-03-13T09:15:21;44.37;;;13.80;;
70270;SDS011;57680;54.292;18.598;2023-03-13T09:17:47;40.87;;;13.67;;
70270;SDS011;57680;54.292;18.598;2023-03-13T09:20:12;43.93;;;13.87;;
70270;SDS011;57680;54.292;18.598;2023-03-13T09:22:37;37.25;;;12.43;;
70270;SDS011;57680;54.292;18.598;2023-03-13T09:25:03;42.37;;;14.20;;
70270;SDS011;57680;54.292;18.598;2023-03-13T09:27:29;39.67;;;13.73;;
70270;SDS011;57680;54.292;18.598;2023-03-13T09:29:54;44.60;;;14.20;;
70270;SDS011;57680;54.292;18.598;2023-03-13T09:32:20;37.10;;;12.60;;
70270;SDS011;57680;54.292;18.598;2023-03-13T09:34:46;37.20;;;12.87;;
70270;SDS011;57680;54.292;18.598;2023-03-13T09:37:11;37.30;;;12.63;;
70270;SDS011;57680;54.292;18.598;2023-03-13T09:39:37;42.33;;;13.83;;
70270;SDS011;57680;54.292;18.598;2023-03-13T09:44:47;39.97;;;13.57;;
70270;SDS011;57680;54.292;18.598;2023-03-13T09:50:01;42.47;;;13.93;;
70270;SDS011;57680;54.292;18.598;2023-03-13T09:52:38;39.90;;;12.57;;
70270;SDS011;57680;54.292;18.598;2023-03-13T09:55:13;41.78;;;13.85;;
70270;SDS011;57680;54.292;18.598;2023-03-13T09:57:59;38.40;;;12.80;;
70270;SDS011;57680;54.292;18.598;2023-03-13T10:00:32;44.47;;;14.20;;
70270;SDS011;57680;54.292;18.598;2023-03-13T10:05:36;37.73;;;13.90;;
70270;SDS011;57680;54.292;18.598;2023-03-13T10:08:10;37.30;;;13.73;;
70270;SDS011;57680;54.292;18.598;2023-03-13T10:16:32;37.75;;;13.05;;
70270;SDS011;57680;54.292;18.598;2023-03-13T10:19:19;36.93;;;12.60;;
70270;SDS011;57680;54.292;18.598;2023-03-13T10:21:52;34.13;;;12.40;;
70270;SDS011;57680;54.292;18.598;2023-03-13T10:27:08;36.38;;;11.55;;
70270;SDS011;57680;54.292;18.598;2023-03-13T10:29:35;38.70;;;12.63;;
70270;SDS011;57680;54.292;18.598;2023-03-13T10:32:01;36.80;;;12.00;;
70270;SDS011;57680;54.292;18.598;2023-03-13T10:40:41;34.88;;;12.30;;
70270;SDS011;57680;54.292;18.598;2023-03-13T10:42:49;34.00;;;12.67;;
70270;SDS011;57680;54.292;18.598;2023-03-13T10:45:17;37.90;;;13.00;;
70270;SDS011;57680;54.292;18.598;2023-03-13T10:47:44;35.70;;;12.25;;
70270;SDS011;57680;54.292;18.598;2023-03-13T10:50:20;35.70;;;12.45;;
70270;SDS011;57680;54.292;18.598;2023-03-13T10:52:47;36.38;;;12.57;;
70270;SDS011;57680;54.292;18.598;2023-03-13T10:55:23;36.20;;;13.13;;
70270;SDS011;57680;54.292;18.598;2023-03-13T10:58:03;36.58;;;13.15;;
70270;SDS011;57680;54.292;18.598;2023-03-13T11:03:00;35.38;;;11.98;;
70270;SDS011;57680;54.292;18.598;2023-03-13T11:05:30;37.08;;;13.75;;
70270;SDS011;57680;54.292;18.598;2023-03-13T11:08:09;38.13;;;13.63;;
70270;SDS011;57680;54.292;18.598;2023-03-13T11:10:59;37.60;;;13.05;;
70270;SDS011;57680;54.292;18.598;2023-03-13T11:13:31;36.53;;;12.80;;
70270;SDS011;57680;54.292;18.598;2023-03-13T11:15:59;32.20;;;12.75;;
70270;SDS011;57680;54.292;18.598;2023-03-13T11:21:22;36.90;;;13.37;;
70270;SDS011;57680;54.292;18.598;2023-03-13T11:23:55;39.88;;;14.60;;
70270;SDS011;57680;54.292;18.598;2023-03-13T11:31:56;40.67;;;14.27;;
70270;SDS011;57680;54.292;18.598;2023-03-13T11:34:38;37.00;;;13.97;;
70270;SDS011;57680;54.292;18.598;2023-03-13T11:44:54;34.88;;;13.40;;
70270;SDS011;57680;54.292;18.598;2023-03-13T11:50:07;35.38;;;13.60;;
70270;SDS011;57680;54.292;18.598;2023-03-13T12:01:00;30.60;;;12.43;;
70270;SDS011;57680;54.292;18.598;2023-03-13T12:06:37;33.03;;;12.38;;
70270;SDS011;57680;54.292;18.598;2023-03-13T12:09:13;33.00;;;13.50;;
70270;SDS011;57680;54.292;18.598;2023-03-13T12:12:00;33.25;;;13.50;;
70270;SDS011;57680;54.292;18.598;2023-03-13T12:14:36;31.60;;;13.07;;
70270;SDS011;57680;54.292;18.598;2023-03-13T12:17:09;37.05;;;13.82;;
70270;SDS011;57680;54.292;18.598;2023-03-13T12:22:25;30.25;;;12.70;;
70270;SDS011;57680;54.292;18.598;2023-03-13T12:25:02;32.85;;;12.68;;
70270;SDS011;57680;54.292;18.598;2023-03-13T12:27:38;32.20;;;13.17;;
70270;SDS011;57680;54.292;18.598;2023-03-13T12:38:46;32.65;;;12.95;;
70270;SDS011;57680;54.292;18.598;2023-03-13T12:44:06;29.75;;;12.70;;
70270;SDS011;57680;54.292;18.598;2023-03-13T12:46:43;32.30;;;12.38;;
70270;SDS011;57680;54.292;18.598;2023-03-13T12:49:28;31.85;;;11.98;;
70270;SDS011;57680;54.292;18.598;2023-03-13T13:00:19;32.28;;;12.63;;
70270;SDS011;57680;54.292;18.598;2023-03-13T13:02:59;35.47;;;12.63;;
70270;SDS011;57680;54.292;18.598;2023-03-13T13:08:40;32.77;;;12.77;;
70270;SDS011;57680;54.292;18.598;2023-03-13T13:14:01;34.42;;;13.02;;
70270;SDS011;57680;54.292;18.598;2023-03-13T13:16:41;31.70;;;12.02;;
70270;SDS011;57680;54.292;18.598;2023-03-13T13:24:53;30.38;;;12.52;;
70270;SDS011;57680;54.292;18.598;2023-03-13T13:29:58;33.78;;;13.07;;
70270;SDS011;57680;54.292;18.598;2023-03-13T13:32:29;35.58;;;13.00;;
70270;SDS011;57680;54.292;18.598;2023-03-13T13:35:18;33.00;;;13.57;;
70270;SDS011;57680;54.292;18.598;2023-03-13T13:37:46;30.98;;;12.43;;
70270;SDS011;57680;54.292;18.598;2023-03-13T13:43:14;29.60;;;12.27;;
70270;SDS011;57680;54.292;18.598;2023-03-13T13:45:56;27.40;;;11.02;;
70270;SDS011;57680;54.292;18.598;2023-03-13T13:48:32;30.27;;;11.55;;
70270;SDS011;57680;54.292;18.598;2023-03-13T13:53:33;27.90;;;11.38;;
70270;SDS011;57680;54.292;18.598;2023-03-13T13:58:56;28.38;;;10.27;;
70270;SDS011;57680;54.292;18.598;2023-03-13T14:01:24;25.13;;;10.50;;
70270;SDS011;57680;54.292;18.598;2023-03-13T14:03:50;22.00;;;8.77;;
70270;SDS011;57680;54.292;18.598;2023-03-13T14:06:27;25.52;;;9.65;;
70270;SDS011;57680;54.292;18.598;2023-03-13T14:08:56;25.33;;;9.82;;
70270;SDS011;57680;54.292;18.598;2023-03-13T14:11:37;23.55;;;9.20;;
70270;SDS011;57680;54.292;18.598;2023-03-13T14:14:10;19.00;;;8.30;;
70270;SDS011;57680;54.292;18.598;2023-03-13T14:16:36;19.75;;;8.55;;
70270;SDS011;57680;54.292;18.598;2023-03-13T14:19:02;18.85;;;7.88;;
70270;SDS011;57680;54.292;18.598;2023-03-13T14:21:28;20.37;;;8.47;;
70270;SDS011;57680;54.292;18.598;2023-03-13T14:23:54;18.05;;;7.53;;
70270;SDS011;57680;54.292;18.598;2023-03-13T14:26:20;18.67;;;7.57;;
70270;SDS011;57680;54.292;18.598;2023-03-13T14:28:51;19.98;;;7.90;;
70270;SDS011;57680;54.292;18.598;2023-03-13T14:31:31;17.98;;;7.07;;
70270;SDS011;57680;54.292;18.598;2023-03-13T14:34:00;17.73;;;6.72;;
70270;SDS011;57680;54.292;18.598;2023-03-13T14:36:30;16.88;;;6.18;;
70270;SDS011;57680;54.292;18.598;2023-03-13T14:39:11;14.97;;;5.73;;
70270;SDS011;57680;54.292;18.598;2023-03-13T14:41:44;12.75;;;5.70;;
70270;SDS011;57680;54.292;18.598;2023-03-13T14:44:30;14.50;;;5.03;;
70270;SDS011;57680;54.292;18.598;2023-03-13T14:46:58;11.73;;;4.40;;
70270;SDS011;57680;54.292;18.598;2023-03-13T14:49:33;12.75;;;5.05;;
70270;SDS011;57680;54.292;18.598;2023-03-13T14:52:01;12.60;;;5.33;;
70270;SDS011;57680;54.292;18.598;2023-03-13T14:54:50;11.90;;;5.28;;
70270;SDS011;57680;54.292;18.598;2023-03-13T14:57:34;14.40;;;5.30;;
70270;SDS011;57680;54.292;18.598;2023-03-13T15:03:41;11.30;;;4.60;;
70270;SDS011;57680;54.292;18.598;2023-03-13T15:06:05;8.90;;;4.10;;
70270;SDS011;57680;54.292;18.598;2023-03-13T15:08:34;13.60;;;5.38;;
70270;SDS011;57680;54.292;18.598;2023-03-13T15:11:15;9.40;;;4.28;;
70270;SDS011;57680;54.292;18.598;2023-03-13T15:13:44;8.77;;;4.28;;
70270;SDS011;57680;54.292;18.598;2023-03-13T15:16:16;9.40;;;4.00;;
70270;SDS011;57680;54.292;18.598;2023-03-13T15:18:43;9.07;;;3.88;;
70270;SDS011;57680;54.292;18.598;2023-03-13T15:23:39;9.20;;;4.00;;
70270;SDS011;57680;54.292;18.598;2023-03-13T15:26:05;9.10;;;4.13;;
70270;SDS011;57680;54.292;18.598;2023-03-13T15:28:30;12.03;;;3.83;;
70270;SDS011;57680;54.292;18.598;2023-03-13T15:30:57;9.95;;;4.13;;
70270;SDS011;57680;54.292;18.598;2023-03-13T15:33:25;8.07;;;3.77;;
70270;SDS011;57680;54.292;18.598;2023-03-13T15:35:52;9.18;;;3.60;;
70270;SDS011;57680;54.292;18.598;2023-03-13T15:38:19;10.57;;;4.20;;
70270;SDS011;57680;54.292;18.598;2023-03-13T15:40:47;11.52;;;4.10;;
70270;SDS011;57680;54.292;18.598;2023-03-13T15:43:13;8.82;;;3.92;;
70270;SDS011;57680;54.292;18.598;2023-03-13T15:45:40;9.30;;;3.60;;
70270;SDS011;57680;54.292;18.598;2023-03-13T15:48:20;9.38;;;3.97;;
70270;SDS011;57680;54.292;18.598;2023-03-13T15:51:00;8.25;;;3.65;;
70270;SDS011;57680;54.292;18.598;2023-03-13T15:53:28;9.93;;;4.00;;
70270;SDS011;57680;54.292;18.598;2023-03-13T15:55:56;9.00;;;4.23;;
70270;SDS011;57680;54.292;18.598;2023-03-13T15:58:23;9.02;;;3.47;;
70270;SDS011;57680;54.292;18.598;2023-03-13T16:00:49;10.85;;;4.22;;
70270;SDS011;57680;54.292;18.598;2023-03-13T16:03:24;8.07;;;3.57;;
70270;SDS011;57680;54.292;18.598;2023-03-13T16:05:51;14.73;;;3.60;;
70270;SDS011;57680;54.292;18.598;2023-03-13T16:08:19;7.20;;;3.30;;
70270;SDS011;57680;54.292;18.598;2023-03-13T16:10:46;8.15;;;3.28;;
70270;SDS011;57680;54.292;18.598;2023-03-13T16:13:11;6.77;;;3.07;;
70270;SDS011;57680;54.292;18.598;2023-03-13T16:15:37;6.60;;;3.20;;
70270;SDS011;57680;54.292;18.598;2023-03-13T16:18:03;7.82;;;4.00;;
70270;SDS011;57680;54.292;18.598;2023-03-13T16:20:30;8.07;;;3.47;;
70270;SDS011;57680;54.292;18.598;2023-03-13T16:22:56;8.70;;;3.70;;